createdAt,value
2017-10-01T00:00:03.125Z,0
2017-10-01T00:05:02.500Z,0
2017-10-01T00:10:02.991Z,0
2017-10-01T00:15:02.486Z,0
2017-10-01T00:20:02.977Z,0
2017-10-01T00:25:02.436Z,0
2017-10-01T00:30:02.970Z,0
2017-10-01T00:35:02.486Z,0
2017-10-01T00:40:02.972Z,0
2017-10-01T00:45:03.310Z,0
2017-10-01T00:50:02.907Z,0
2017-10-01T00:55:02.400Z,0
2017-10-01T01:00:02.880Z,0
2017-10-01T01:05:03.263Z,0
2017-10-01T01:10:02.830Z,0
2017-10-01T01:15:03.356Z,0
2017-10-01T01:20:02.746Z,0
2017-10-01T01:25:03.178Z,0
2017-10-01T01:30:02.734Z,0
2017-10-01T01:35:03.277Z,0
2017-10-01T01:40:02.707Z,0
2017-10-01T01:45:03.271Z,0
2017-10-01T01:50:02.673Z,0
2017-10-01T01:55:03.086Z,0
2017-10-01T02:00:02.526Z,0
2017-10-01T02:05:03.055Z,0
2017-10-01T02:10:02.600Z,0
2017-10-01T02:15:03.084Z,0
2017-10-01T02:20:02.452Z,0
2017-10-01T02:25:02.886Z,0
2017-10-01T02:30:03.436Z,0
2017-10-01T02:35:02.837Z,0
2017-10-01T02:40:02.451Z,0
2017-10-01T02:45:02.910Z,0
2017-10-01T02:50:02.479Z,0
2017-10-01T02:55:02.890Z,0
2017-10-01T03:00:03.333Z,0
2017-10-01T03:05:02.739Z,0
2017-10-01T03:10:03.321Z,0
2017-10-01T03:15:02.893Z,0
2017-10-01T03:20:02.520Z,0
2017-10-01T03:25:02.886Z,0
2017-10-01T03:30:03.413Z,0
2017-10-01T03:35:02.992Z,0
2017-10-01T03:40:02.508Z,0
2017-10-01T03:45:03.076Z,0
2017-10-01T03:50:02.534Z,0
2017-10-01T03:55:03.088Z,0
2017-10-01T04:00:02.744Z,0
2017-10-01T04:05:03.327Z,0
2017-10-01T04:10:02.711Z,0
2017-10-01T04:15:03.079Z,0
2017-10-01T04:20:02.628Z,0
2017-10-01T04:25:03.228Z,0
2017-10-01T04:30:03.249Z,0
2017-10-01T04:35:02.832Z,0
2017-10-01T04:40:03.256Z,0
2017-10-01T04:45:02.684Z,0
2017-10-01T04:50:03.110Z,0
2017-10-01T04:55:02.461Z,0
2017-10-01T05:00:03.003Z,0
2017-10-01T05:05:02.438Z,0
2017-10-01T05:10:03.047Z,2
2017-10-01T05:15:03.423Z,5
2017-10-01T05:20:02.828Z,11
2017-10-01T05:25:03.285Z,41
2017-10-01T05:30:02.669Z,56
2017-10-01T05:35:03.178Z,105
2017-10-01T05:40:02.629Z,169
2017-10-01T05:45:03.118Z,306
2017-10-01T05:50:02.547Z,554
2017-10-01T05:55:02.990Z,684
2017-10-01T06:00:03.359Z,738
2017-10-01T06:05:02.946Z,871
2017-10-01T06:10:02.540Z,965
2017-10-01T06:15:02.892Z,992
2017-10-01T06:20:03.412Z,910
2017-10-01T06:25:02.977Z,884
2017-10-01T06:30:03.322Z,1000
2017-10-01T06:35:02.718Z,1000
2017-10-01T06:40:03.214Z,1000
2017-10-01T06:45:02.728Z,1000
2017-10-01T06:50:03.159Z,1000
2017-10-01T06:55:02.615Z,1000
2017-10-01T07:00:03.061Z,1000
2017-10-01T07:05:02.483Z,2000
2017-10-01T07:10:03.007Z,2000
2017-10-01T07:15:02.477Z,2000
2017-10-01T07:20:03.049Z,2000
2017-10-01T07:25:02.464Z,2000
2017-10-01T07:30:02.940Z,2000
2017-10-01T07:35:02.437Z,2000
2017-10-01T07:40:03.055Z,2000
2017-10-01T07:45:02.530Z,2000
2017-10-01T07:50:03.067Z,3000
2017-10-01T07:55:02.533Z,23000
2017-10-01T08:00:03.005Z,29000
2017-10-01T08:05:02.574Z,29000
2017-10-01T08:10:03.153Z,32000
2017-10-01T08:15:02.612Z,33000
2017-10-01T08:20:03.192Z,35000
2017-10-01T08:25:02.627Z,36000
2017-10-01T08:30:03.212Z,37000
2017-10-01T08:35:02.634Z,37000
2017-10-01T08:40:03.282Z,37000
2017-10-01T08:45:02.646Z,38000
2017-10-01T08:50:03.139Z,41000
2017-10-01T08:55:02.517Z,44000
2017-10-01T09:00:02.936Z,23000
2017-10-01T09:05:03.401Z,19000
2017-10-01T09:10:02.917Z,39000
2017-10-01T09:15:03.364Z,40000
2017-10-01T09:20:02.911Z,40000
2017-10-01T09:25:02.460Z,26000
2017-10-01T09:30:03.015Z,38000
2017-10-01T09:35:03.393Z,37000
2017-10-01T09:40:02.843Z,38000
2017-10-01T09:45:03.358Z,42000
2017-10-01T09:50:02.857Z,21000
2017-10-01T09:55:03.369Z,33000
2017-10-01T10:00:02.796Z,28000
2017-10-01T10:05:03.285Z,40000
2017-10-01T10:10:02.840Z,38000
2017-10-01T10:15:03.386Z,39000
2017-10-01T10:20:02.948Z,37000
2017-10-01T10:25:02.480Z,47000
2017-10-01T10:30:02.886Z,25000
2017-10-01T10:35:03.354Z,23000
2017-10-01T10:40:02.893Z,46000
2017-10-01T10:45:03.413Z,25000
2017-10-01T10:50:02.925Z,25000
2017-10-01T10:55:03.691Z,35000
2017-10-01T11:00:03.293Z,29000
2017-10-01T11:05:02.698Z,32000
2017-10-01T11:10:03.253Z,26000
2017-10-01T11:15:02.641Z,35000
2017-10-01T11:20:03.087Z,37000
2017-10-01T11:25:02.556Z,35000
2017-10-01T11:30:03.121Z,34000
2017-10-01T11:35:02.605Z,22000
2017-10-01T11:40:03.091Z,14000
2017-10-01T11:45:02.602Z,20000
2017-10-01T11:50:03.132Z,15000
2017-10-01T11:55:02.706Z,13000
2017-10-01T12:00:03.161Z,14000
2017-10-01T12:05:02.671Z,15000
2017-10-01T12:10:03.259Z,15000
2017-10-01T12:15:02.833Z,13000
2017-10-01T12:20:03.346Z,26000
2017-10-01T12:25:02.873Z,33000
2017-10-01T12:30:03.269Z,26000
2017-10-01T12:35:02.871Z,21000
2017-10-01T12:40:03.319Z,26000
2017-10-01T12:45:02.867Z,19000
2017-10-01T12:50:02.480Z,16000
2017-10-01T12:55:02.928Z,12000
2017-10-01T13:00:02.476Z,15000
2017-10-01T13:05:02.872Z,12000
2017-10-01T13:10:03.369Z,11000
2017-10-01T13:15:02.833Z,7000
2017-10-01T13:20:03.413Z,7000
2017-10-01T13:25:02.898Z,6000
2017-10-01T13:30:03.463Z,7000
2017-10-01T13:35:02.988Z,8000
2017-10-01T13:40:02.487Z,9000
2017-10-01T13:45:03.106Z,7000
2017-10-01T13:50:02.581Z,7000
2017-10-01T13:55:03.036Z,6000
2017-10-01T14:00:02.501Z,6000
2017-10-01T14:05:03.018Z,7000
2017-10-01T14:10:02.562Z,10000
2017-10-01T14:15:03.119Z,8000
2017-10-01T14:20:02.597Z,14000
2017-10-01T14:25:03.077Z,19000
2017-10-01T14:30:02.479Z,16000
2017-10-01T14:35:02.959Z,6000
2017-10-01T14:40:02.443Z,5000
2017-10-01T14:45:02.987Z,5000
2017-10-01T14:50:03.374Z,4000
2017-10-01T14:55:02.783Z,5000
2017-10-01T15:00:03.221Z,5000
2017-10-01T15:05:02.630Z,4000
2017-10-01T15:10:03.156Z,4000
2017-10-01T15:15:02.556Z,3000
2017-10-01T15:20:03.048Z,3000
2017-10-01T15:25:02.514Z,2000
2017-10-01T15:30:03.047Z,2000
2017-10-01T15:35:02.541Z,2000
2017-10-01T15:40:03.091Z,1000
2017-10-01T15:45:02.551Z,1000
2017-10-01T15:50:03.066Z,1000
2017-10-01T15:55:02.489Z,1000
2017-10-01T16:00:02.900Z,897
2017-10-01T16:05:02.488Z,869
2017-10-01T16:10:03.009Z,816
2017-10-01T16:15:02.496Z,792
2017-10-01T16:20:02.938Z,719
2017-10-01T16:25:03.330Z,629
2017-10-01T16:30:02.878Z,558
2017-10-01T16:35:03.434Z,514
2017-10-01T16:40:02.863Z,498
2017-10-01T16:45:03.378Z,428
2017-10-01T16:50:02.924Z,322
2017-10-01T16:55:03.352Z,191
2017-10-01T17:00:02.994Z,65
2017-10-01T17:10:03.423Z,41
2017-10-01T17:15:02.923Z,34
2017-10-01T17:20:03.380Z,28
2017-10-01T17:25:02.792Z,14
2017-10-01T17:30:03.221Z,6
2017-10-01T17:50:02.590Z,0
2017-10-01T17:55:03.135Z,0
2017-10-01T18:00:02.555Z,0
2017-10-01T18:05:02.989Z,0
2017-10-01T18:10:02.528Z,0
2017-10-01T18:15:02.993Z,0
2017-10-01T18:20:02.465Z,0
2017-10-01T18:25:02.886Z,0
2017-10-01T18:30:03.357Z,0
2017-10-01T18:35:02.927Z,0
2017-10-01T18:45:03.152Z,0
2017-10-01T18:50:02.592Z,0
2017-10-01T18:55:03.085Z,0
2017-10-01T19:05:03.116Z,0
2017-10-01T19:10:02.617Z,0
2017-10-01T19:15:03.086Z,0
2017-10-01T19:20:02.477Z,0
2017-10-01T19:25:02.972Z,0
2017-10-01T19:30:03.418Z,0
2017-10-01T19:50:02.737Z,0
2017-10-01T19:55:03.242Z,0
2017-10-01T20:00:02.648Z,0
2017-10-01T20:05:03.079Z,0
2017-10-01T20:10:02.603Z,0
2017-10-01T20:15:03.064Z,0
2017-10-01T20:20:02.578Z,0
2017-10-01T20:25:03.118Z,0
2017-10-01T20:30:02.615Z,0
2017-10-01T20:35:03.076Z,0
2017-10-01T20:40:02.556Z,0
2017-10-01T20:45:03.053Z,0
2017-10-01T20:50:02.585Z,0
2017-10-01T20:55:03.172Z,0
2017-10-01T21:00:02.602Z,0
2017-10-01T21:05:03.150Z,0
2017-10-01T21:10:02.596Z,0
2017-10-01T21:15:03.107Z,0
2017-10-01T21:20:02.612Z,0
2017-10-01T21:25:03.066Z,0
2017-10-01T21:30:02.552Z,0
2017-10-01T21:40:02.703Z,0
2017-10-01T21:45:03.169Z,0
2017-10-01T21:50:02.588Z,0
2017-10-01T21:55:03.148Z,0
2017-10-01T22:00:02.672Z,0
2017-10-01T22:05:03.063Z,0
2017-10-01T22:10:02.549Z,0
2017-10-01T22:15:03.137Z,0
2017-10-01T22:20:02.644Z,0
2017-10-01T22:25:03.180Z,0
2017-10-01T22:30:02.630Z,0
2017-10-01T22:35:03.191Z,0
2017-10-01T22:40:02.641Z,0
2017-10-01T22:45:03.032Z,0
2017-10-01T22:50:02.439Z,0
2017-10-01T22:55:02.925Z,0
2017-10-01T23:10:03.356Z,0
2017-10-01T23:25:03.088Z,0
2017-10-01T23:30:02.493Z,0
2017-10-01T23:35:03.047Z,0
2017-10-01T23:40:02.547Z,0
2017-10-01T23:45:03.084Z,0
2017-10-01T23:50:02.584Z,0
2017-10-01T23:55:03.081Z,0
